Time;durP1;ratioP1;P1;durP2;ratioP2;P2;SDS_P1;SDS_P2;PMS_P1;PMS_P2;Temp;Humidity;BMP_temperature;BMP_pressure;BME280_temperature;BME280_humidity;BME280_pressure;Samples;Min_cycle;Max_cycle;Signal;HPM_P1;HPM_P2
2022/05/24 00:01:37;;;;;;;15.10;10.10;;;12.90;99.90;;;;;;5055666;28;20036;-48
2022/05/24 00:04:03;;;;;;;12.48;8.85;;;13.90;99.90;;;;;;5088799;28;20339;-49
2022/05/24 00:06:31;;;;;;;11.75;8.30;;;12.80;99.90;;;;;;5055921;28;20127;-46
2022/05/24 00:08:59;;;;;;;12.85;8.63;;;12.80;99.90;;;;;;5055721;28;20811;-46
2022/05/24 00:11:25;;;;;;;12.13;7.85;;;12.60;99.90;;;;;;5056807;28;20700;-45
2022/05/24 00:13:50;;;;;;;12.60;7.68;;;12.70;99.90;;;;;;5055543;28;20052;-44
2022/05/24 00:16:17;;;;;;;17.40;8.25;;;13.50;99.90;;;;;;5054373;28;20899;-48
2022/05/24 00:18:43;;;;;;;12.95;8.35;;;12.80;99.90;;;;;;5055692;28;20041;-47
2022/05/24 00:21:08;;;;;;;14.40;8.30;;;13.40;99.90;;;;;;5055607;28;20140;-44
2022/05/24 00:23:35;;;;;;;11.73;7.45;;;12.60;99.90;;;;;;5056006;28;20045;-45
2022/05/24 00:26:08;;;;;;;13.10;7.00;;;12.60;99.90;;;;;;5055849;28;20066;-45
2022/05/24 00:28:35;;;;;;;9.93;6.30;;;12.70;99.90;;;;;;5055311;28;20134;-50
2022/05/24 00:31:02;;;;;;;9.88;6.03;;;12.60;99.90;;;;;;5055526;28;20044;-44
2022/05/24 00:33:31;;;;;;;8.73;5.30;;;12.70;99.90;;;;;;5055655;28;20536;-45
2022/05/24 00:35:57;;;;;;;10.02;5.15;;;12.50;99.90;;;;;;5056398;28;20053;-46
2022/05/24 00:38:36;;;;;;;13.38;5.32;;;12.50;99.90;;;;;;5055608;28;20233;-48
2022/05/24 00:41:10;;;;;;;9.07;5.55;;;12.40;99.90;;;;;;5057031;28;20079;-48
2022/05/24 00:43:44;;;;;;;11.40;5.70;;;12.50;99.90;;;;;;5056481;28;20535;-48
2022/05/24 00:46:23;;;;;;;9.13;6.10;;;12.30;99.90;;;;;;5056289;28;20044;-47
2022/05/24 00:49:07;;;;;;;8.85;4.95;;;12.30;99.90;;;;;;5056270;28;20040;-48
2022/05/24 00:51:38;;;;;;;10.25;5.35;;;12.40;99.90;;;;;;5056352;28;20056;-46
2022/05/24 00:54:06;;;;;;;8.15;5.30;;;12.10;99.90;;;;;;5054994;28;20076;-45
2022/05/24 00:56:53;;;;;;;9.95;5.93;;;12.10;99.90;;;;;;5055342;28;20043;-48
2022/05/24 00:59:45;;;;;;;13.73;6.20;;;12.20;99.90;;;;;;5055724;28;20048;-48
2022/05/24 01:02:12;;;;;;;9.95;6.68;;;11.90;99.90;;;;;;5055822;28;20097;-49
2022/05/24 01:04:38;;;;;;;13.90;6.65;;;11.90;99.90;;;;;;5054663;28;20131;-49
2022/05/24 01:07:06;;;;;;;14.00;6.72;;;13.10;99.90;;;;;;5053081;28;20039;-47
2022/05/24 01:09:50;;;;;;;10.38;6.28;;;12.50;99.90;;;;;;5053277;28;21060;-49
2022/05/24 01:12:27;;;;;;;12.45;6.32;;;11.80;99.90;;;;;;5056721;28;20119;-50
2022/05/24 01:14:56;;;;;;;9.77;6.53;;;11.70;99.90;;;;;;5054555;28;20044;-46
2022/05/24 01:17:22;;;;;;;12.45;7.47;;;11.70;99.90;;;;;;5054472;28;20045;-46
2022/05/24 01:19:49;;;;;;;12.43;6.75;;;11.60;99.90;;;;;;5048758;28;20048;-49
2022/05/24 01:22:37;;;;;;;12.55;6.82;;;11.70;99.90;;;;;;5053044;28;20037;-50
2022/05/24 01:25:22;;;;;;;11.50;6.97;;;11.60;99.90;;;;;;5053289;28;20040;-48
2022/05/24 01:27:47;;;;;;;12.50;7.85;;;11.70;99.90;;;;;;5054034;28;20040;-49
2022/05/24 01:30:13;;;;;;;14.63;7.78;;;11.60;99.90;;;;;;5055075;28;20043;-48
2022/05/24 01:38:12;;;;;;;11.55;7.90;;;11.50;99.90;;;;;;5054559;28;20045;-48
2022/05/24 01:40:40;;;;;;;14.40;8.73;;;12.50;99.90;;;;;;5054318;28;20047;-50
2022/05/24 01:43:06;;;;;;;13.63;8.18;;;11.40;99.90;;;;;;5054997;28;20044;-51
2022/05/24 01:45:41;;;;;;;13.43;8.15;;;11.40;99.90;;;;;;5053451;28;20033;-49
2022/05/24 01:48:12;;;;;;;14.75;8.52;;;11.40;99.90;;;;;;5054634;28;20048;-49
2022/05/24 01:50:40;;;;;;;13.45;9.27;;;11.30;99.90;;;;;;5054327;28;20040;-49
2022/05/24 01:53:17;;;;;;;13.43;9.07;;;11.20;99.90;;;;;;5054882;28;20052;-50
2022/05/24 01:55:51;;;;;;;14.50;8.93;;;11.40;99.90;;;;;;5054484;28;20560;-48
2022/05/24 01:58:20;;;;;;;11.80;8.88;;;9.50;99.90;;;;;;5055391;28;20122;-47
2022/05/24 02:00:55;;;;;;;14.40;9.45;;;11.40;99.90;;;;;;5054440;28;20047;-48
2022/05/24 02:03:21;;;;;;;16.35;9.57;;;11.50;99.90;;;;;;5053919;28;20041;-45
2022/05/24 02:05:47;;;;;;;15.50;9.90;;;11.40;99.90;;;;;;5054319;28;20051;-47
2022/05/24 02:08:13;;;;;;;13.32;9.50;;;11.50;99.90;;;;;;5054049;28;20052;-45
2022/05/24 02:10:51;;;;;;;14.30;10.23;;;11.50;99.90;;;;;;5054473;28;20131;-47
2022/05/24 02:13:26;;;;;;;20.30;11.18;;;11.70;99.90;;;;;;5053781;28;20476;-49
2022/05/24 02:15:53;;;;;;;15.15;9.75;;;11.50;99.90;;;;;;5053930;28;20568;-48
2022/05/24 02:18:22;;;;;;;14.02;10.88;;;11.60;99.90;;;;;;5053210;28;20040;-47
2022/05/24 02:20:48;;;;;;;16.17;10.30;;;11.90;99.90;;;;;;5052062;28;20493;-47
2022/05/24 02:23:17;;;;;;;17.45;10.60;;;11.70;99.90;;;;;;5053411;28;20035;-47
2022/05/24 02:25:55;;;;;;;16.55;10.10;;;11.40;99.90;;;;;;5053144;28;20767;-46
2022/05/24 02:28:27;;;;;;;17.15;11.38;;;11.70;99.90;;;;;;5085354;28;20143;-47
2022/05/24 02:31:00;;;;;;;16.02;11.00;;;11.70;99.90;;;;;;5053863;28;20036;-44
2022/05/24 02:33:26;;;;;;;16.73;11.13;;;11.60;99.90;;;;;;5052855;28;20048;-46
2022/05/24 02:35:52;;;;;;;18.13;10.80;;;11.80;99.90;;;;;;5052807;28;20036;-45
2022/05/24 02:38:19;;;;;;;15.00;10.15;;;12.60;99.90;;;;;;5053688;28;20064;-45
2022/05/24 02:43:32;;;;;;;12.90;10.68;;;11.90;99.90;;;;;;5053379;28;20404;-48
2022/05/24 02:45:59;;;;;;;14.80;9.93;;;13.80;99.90;;;;;;5052703;28;20666;-49
2022/05/24 02:48:25;;;;;;;15.50;11.02;;;11.90;99.90;;;;;;5053164;28;20098;-48
2022/05/24 02:50:51;;;;;;;14.63;10.98;;;11.90;99.90;;;;;;5053178;28;20530;-47
2022/05/24 02:53:17;;;;;;;20.05;11.88;;;13.20;99.90;;;;;;5052535;28;20515;-46
2022/05/24 02:55:43;;;;;;;18.38;11.93;;;13.90;99.90;;;;;;5053708;28;20048;-47
2022/05/24 02:58:09;;;;;;;13.77;10.07;;;11.70;99.90;;;;;;5053124;28;20915;-46
2022/05/24 03:00:34;;;;;;;17.13;12.25;;;12.00;99.90;;;;;;5054533;28;20048;-44
2022/05/24 03:03:00;;;;;;;18.88;12.50;;;12.10;99.90;;;;;;5049333;28;20098;-44
2022/05/24 03:05:26;;;;;;;19.33;12.57;;;12.20;99.90;;;;;;5051973;28;20036;-44
2022/05/24 03:10:37;;;;;;;18.00;14.40;;;12.40;99.90;;;;;;5053959;28;20475;-46
2022/05/24 03:15:50;;;;;;;19.63;15.45;;;12.10;99.90;;;;;;5052162;28;20087;-46
2022/05/24 03:18:19;;;;;;;20.02;13.95;;;12.10;99.90;;;;;;5052768;28;20258;-46
2022/05/24 03:20:45;;;;;;;24.23;18.40;;;13.60;99.90;;;;;;5053268;28;20161;-46
2022/05/24 03:23:12;;;;;;;25.38;17.98;;;13.10;99.90;;;;;;5051470;28;20481;-45
2022/05/24 03:25:38;;;;;;;23.83;17.67;;;12.20;99.90;;;;;;5052247;28;20040;-46
2022/05/24 03:28:06;;;;;;;24.08;18.35;;;12.60;99.90;;;;;;5051371;28;20200;-45
2022/05/24 03:30:35;;;;;;;25.45;17.40;;;12.30;99.90;;;;;;5052817;28;20056;-45
2022/05/24 03:33:01;;;;;;;24.83;19.35;;;12.50;99.90;;;;;;5050482;28;20063;-45
2022/05/24 03:35:27;;;;;;;27.73;20.27;;;13.10;99.90;;;;;;5052907;28;20713;-44
2022/05/24 03:37:52;;;;;;;28.13;21.08;;;12.30;99.90;;;;;;5048600;28;20053;-45
2022/05/24 03:40:18;;;;;;;26.65;21.00;;;12.50;99.90;;;;;;5051716;28;20041;-47
2022/05/24 03:42:46;;;;;;;29.17;22.65;;;12.40;99.90;;;;;;5052522;28;20053;-50
2022/05/24 03:45:12;;;;;;;30.00;22.60;;;12.50;99.90;;;;;;5052904;28;20033;-46
2022/05/24 03:47:39;;;;;;;26.92;22.23;;;12.60;99.90;;;;;;5052120;28;20607;-45
2022/05/24 03:50:07;;;;;;;33.60;23.75;;;14.30;99.90;;;;;;5051555;28;20047;-45
2022/05/24 03:52:33;;;;;;;34.60;25.92;;;12.60;99.90;;;;;;5051230;28;20102;-46
2022/05/24 03:54:59;;;;;;;30.95;24.02;;;14.40;99.90;;;;;;5052409;28;20641;-45
2022/05/24 04:00:11;;;;;;;31.73;23.77;;;12.70;99.90;;;;;;5050938;28;20045;-45
2022/05/24 04:02:37;;;;;;;33.85;23.00;;;12.70;99.90;;;;;;5050909;28;20124;-44
2022/05/24 04:05:03;;;;;;;32.88;24.17;;;13.60;99.90;;;;;;5084585;28;20287;-44
2022/05/24 04:07:28;;;;;;;32.58;22.58;;;12.70;99.90;;;;;;5052634;28;20043;-47
2022/05/24 04:09:56;;;;;;;26.00;21.40;;;13.00;99.90;;;;;;5051691;28;20040;-45
2022/05/24 04:12:22;;;;;;;28.85;22.80;;;12.60;99.90;;;;;;5052589;28;20037;-46
2022/05/24 04:14:47;;;;;;;30.35;20.67;;;12.80;99.90;;;;;;5050432;28;20537;-48
2022/05/24 04:17:16;;;;;;;26.58;19.35;;;12.90;99.90;;;;;;5051929;28;20044;-45
2022/05/24 04:19:43;;;;;;;24.02;17.38;;;12.80;99.90;;;;;;5052384;28;20048;-49
2022/05/24 04:22:08;;;;;;;24.30;18.20;;;12.80;99.90;;;;;;5052527;28;20083;-44
2022/05/24 04:24:34;;;;;;;21.20;17.15;;;13.90;99.90;;;;;;5051859;28;20131;-45
2022/05/24 04:27:00;;;;;;;23.70;15.73;;;13.30;99.90;;;;;;5052208;28;20127;-45
2022/05/24 04:29:25;;;;;;;20.10;15.07;;;12.90;99.90;;;;;;5052433;28;20155;-45
2022/05/24 04:31:51;;;;;;;21.70;14.38;;;12.80;99.90;;;;;;5052381;28;20067;-44
2022/05/24 04:34:17;;;;;;;19.45;13.80;;;14.10;99.90;;;;;;5052796;28;20110;-51
2022/05/24 04:36:42;;;;;;;19.23;13.63;;;13.90;99.90;;;;;;5051951;28;20044;-44
2022/05/24 04:39:08;;;;;;;16.73;12.88;;;13.00;99.90;;;;;;5051190;28;20033;-46
2022/05/24 04:44:20;;;;;;;18.63;13.38;;;14.80;99.90;;;;;;5053373;28;20389;-49
2022/05/24 04:47:07;;;;;;;18.85;12.48;;;13.40;99.90;;;;;;5055457;28;20717;-48
2022/05/24 04:49:32;;;;;;;18.35;12.80;;;12.90;99.90;;;;;;5053725;28;20122;-46
2022/05/24 04:52:00;;;;;;;16.88;11.20;;;13.80;99.90;;;;;;5054755;28;20097;-45
2022/05/24 04:54:26;;;;;;;18.23;11.45;;;13.40;99.90;;;;;;5054640;28;20278;-43
2022/05/24 04:56:52;;;;;;;16.75;11.73;;;12.90;99.90;;;;;;5054699;28;20029;-43
2022/05/24 04:59:18;;;;;;;19.85;12.00;;;12.90;99.90;;;;;;5054358;28;20052;-48
2022/05/24 05:01:44;;;;;;;16.92;11.65;;;12.90;99.90;;;;;;5053916;28;20778;-45
2022/05/24 05:04:10;;;;;;;16.52;11.43;;;13.00;99.90;;;;;;5055621;28;20067;-45
2022/05/24 05:06:36;;;;;;;19.27;12.00;;;12.80;99.90;;;;;;5052690;28;20029;-46
2022/05/24 05:09:02;;;;;;;15.32;11.27;;;12.80;99.90;;;;;;5054018;28;20544;-46
2022/05/24 05:11:28;;;;;;;17.92;12.20;;;13.00;99.90;;;;;;5054131;28;20043;-45
2022/05/24 05:13:56;;;;;;;16.83;12.25;;;13.00;99.90;;;;;;5055888;28;20036;-47
2022/05/24 05:16:21;;;;;;;20.73;13.07;;;13.20;99.90;;;;;;5054079;28;20047;-46
2022/05/24 05:18:47;;;;;;;19.70;13.10;;;12.90;99.90;;;;;;5053648;28;20040;-43
2022/05/24 05:21:13;;;;;;;22.13;13.75;;;13.20;99.90;;;;;;5054436;28;20036;-47
2022/05/24 05:23:38;;;;;;;16.92;13.68;;;14.50;99.90;;;;;;5053752;28;20048;-45
2022/05/24 05:26:04;;;;;;;19.45;13.55;;;14.40;99.90;;;;;;5053256;28;20075;-48
2022/05/24 05:28:31;;;;;;;20.02;13.77;;;15.00;99.90;;;;;;5052502;28;20036;-48
2022/05/24 05:33:44;;;;;;;19.95;14.45;;;13.10;99.90;;;;;;5051963;28;20207;-45
2022/05/24 05:36:11;;;;;;;20.05;14.65;;;14.60;99.90;;;;;;5051807;28;20071;-44
2022/05/24 05:38:37;;;;;;;25.67;14.77;;;13.20;99.90;;;;;;5054288;28;20056;-46
2022/05/24 05:41:04;;;;;;;22.45;14.90;;;14.50;99.90;;;;;;5054123;28;20049;-48
2022/05/24 05:43:30;;;;;;;22.02;15.88;;;14.20;99.90;;;;;;5055129;28;20098;-45
2022/05/24 05:45:58;;;;;;;19.98;15.02;;;14.80;99.90;;;;;;5054373;28;20537;-47
2022/05/24 05:48:24;;;;;;;21.98;16.38;;;13.20;99.90;;;;;;5053700;28;20131;-46
2022/05/24 05:50:51;;;;;;;26.55;16.73;;;14.70;99.90;;;;;;5053908;28;20466;-46
2022/05/24 05:53:19;;;;;;;25.10;16.35;;;13.00;99.90;;;;;;5054472;28;20041;-45
2022/05/24 05:55:45;;;;;;;24.98;16.85;;;12.90;99.90;;;;;;5053818;28;20127;-45
2022/05/24 05:58:12;;;;;;;25.27;16.27;;;12.90;99.90;;;;;;5054361;28;20085;-45
2022/05/24 06:00:41;;;;;;;19.65;14.23;;;12.90;99.90;;;;;;5054017;28;20591;-45
2022/05/24 06:03:07;;;;;;;21.55;15.23;;;14.60;99.90;;;;;;5054305;28;20044;-47
2022/05/24 06:05:33;;;;;;;24.00;15.77;;;12.80;99.90;;;;;;5052721;28;20037;-46
2022/05/24 06:08:01;;;;;;;24.52;15.85;;;13.00;99.90;;;;;;5053412;28;20110;-46
2022/05/24 06:10:29;;;;;;;21.92;14.00;;;13.00;99.90;;;;;;5053011;28;20068;-44
2022/05/24 06:12:57;;;;;;;19.75;13.20;;;12.70;99.90;;;;;;5053159;28;20128;-46
2022/05/24 06:15:27;;;;;;;20.38;13.07;;;14.30;99.90;;;;;;5053677;28;20037;-51
2022/05/24 06:17:53;;;;;;;21.65;13.30;;;13.40;99.90;;;;;;5050195;28;20040;-48
2022/05/24 06:20:25;;;;;;;17.33;11.95;;;13.10;99.90;;;;;;5053350;28;20076;-45
2022/05/24 06:22:52;;;;;;;13.68;10.38;;;12.80;99.90;;;;;;5052949;28;20033;-47
2022/05/24 06:25:19;;;;;;;14.60;10.73;;;12.90;99.90;;;;;;5053904;28;20424;-47
2022/05/24 06:27:45;;;;;;;16.05;9.32;;;14.30;99.90;;;;;;5050993;28;20043;-48
2022/05/24 06:30:13;;;;;;;14.73;8.38;;;13.50;99.90;;;;;;5052304;28;20036;-47
2022/05/24 06:32:38;;;;;;;12.77;8.18;;;12.80;99.90;;;;;;5051302;28;20409;-46
2022/05/24 06:35:05;;;;;;;16.70;8.32;;;12.90;99.90;;;;;;5052180;28;20052;-45
2022/05/24 06:37:31;;;;;;;14.18;8.48;;;13.00;99.90;;;;;;5052355;28;20091;-44
2022/05/24 06:39:57;;;;;;;15.38;8.50;;;13.30;99.90;;;;;;5051688;28;20119;-45
2022/05/24 06:42:23;;;;;;;14.68;8.77;;;13.00;99.90;;;;;;5051413;28;20040;-45
2022/05/24 06:44:51;;;;;;;16.20;9.45;;;14.20;99.90;;;;;;5053713;28;20551;-46
2022/05/24 06:47:17;;;;;;;15.05;9.90;;;13.20;99.90;;;;;;5052123;28;20040;-46
2022/05/24 06:49:43;;;;;;;20.58;9.70;;;14.00;99.90;;;;;;5051883;28;20041;-47
2022/05/24 06:52:11;;;;;;;20.55;11.60;;;13.30;99.90;;;;;;5053406;28;20134;-45
2022/05/24 06:54:37;;;;;;;18.40;11.80;;;13.30;99.90;;;;;;5050904;28;20112;-46
2022/05/24 06:57:03;;;;;;;21.05;13.18;;;13.50;99.90;;;;;;5050825;28;20841;-50
2022/05/24 07:02:25;;;;;;;16.00;11.48;;;13.50;99.90;;;;;;5052780;28;20126;-46
2022/05/24 07:04:58;;;;;;;19.30;12.35;;;13.70;99.90;;;;;;5051985;28;20063;-44
2022/05/24 07:07:24;;;;;;;19.27;10.65;;;14.20;99.90;;;;;;5050506;28;20040;-45
2022/05/24 07:09:51;;;;;;;15.52;9.25;;;13.70;99.90;;;;;;5054054;28;20094;-48
2022/05/24 07:12:20;;;;;;;13.38;7.22;;;13.70;99.90;;;;;;5053015;28;20459;-45
2022/05/24 07:14:46;;;;;;;12.15;7.18;;;13.80;99.90;;;;;;5053358;28;20132;-44
2022/05/24 07:17:12;;;;;;;12.48;5.57;;;14.00;99.90;;;;;;5051846;28;20486;-43
2022/05/24 07:19:41;;;;;;;12.88;6.07;;;13.90;99.90;;;;;;5051643;28;20094;-45
2022/05/24 07:22:08;;;;;;;12.25;5.18;;;13.90;99.90;;;;;;5052500;28;20386;-43
2022/05/24 07:24:34;;;;;;;9.30;5.20;;;13.70;99.90;;;;;;5051993;28;20147;-45
2022/05/24 07:27:04;;;;;;;10.80;5.13;;;13.80;99.90;;;;;;5051336;28;20048;-45
2022/05/24 07:29:33;;;;;;;14.15;5.57;;;13.70;99.90;;;;;;5051340;28;20043;-46
2022/05/24 07:31:59;;;;;;;8.02;5.25;;;13.80;99.90;;;;;;5051168;28;20048;-47
2022/05/24 07:34:26;;;;;;;12.27;6.07;;;14.00;99.90;;;;;;5052208;28;20133;-48
2022/05/24 07:36:52;;;;;;;14.27;5.78;;;13.60;99.90;;;;;;5052327;28;20044;-44
2022/05/24 07:39:20;;;;;;;9.70;5.10;;;13.70;99.90;;;;;;5051514;28;20043;-44
2022/05/24 07:47:14;;;;;;;10.63;5.28;;;14.20;99.90;;;;;;5051176;28;20121;-47
2022/05/24 07:49:40;;;;;;;13.07;4.93;;;13.80;99.90;;;;;;5050996;28;20689;-46
2022/05/24 07:52:06;;;;;;;13.32;6.22;;;13.30;99.90;;;;;;5049322;28;20059;-51
2022/05/24 07:54:33;;;;;;;13.65;5.63;;;13.40;99.90;;;;;;5051303;28;20161;-50
2022/05/24 07:57:01;;;;;;;11.85;5.70;;;13.30;99.90;;;;;;5050507;28;20087;-48
2022/05/24 07:59:27;;;;;;;19.10;6.80;;;13.30;99.90;;;;;;5052119;28;20633;-50
2022/05/24 08:01:53;;;;;;;15.30;6.57;;;13.80;99.90;;;;;;5050407;28;20694;-50
2022/05/24 08:04:21;;;;;;;17.60;6.63;;;13.50;99.90;;;;;;5052723;28;20135;-49
2022/05/24 08:06:47;;;;;;;9.25;6.30;;;13.20;99.90;;;;;;5051466;28;20040;-45
2022/05/24 08:09:12;;;;;;;11.23;5.88;;;13.10;99.90;;;;;;5052602;28;20048;-48
2022/05/24 08:11:40;;;;;;;16.83;6.72;;;12.90;99.90;;;;;;5050638;28;20072;-48
2022/05/24 08:14:06;;;;;;;13.27;5.85;;;14.50;99.90;;;;;;5052459;28;20041;-47
2022/05/24 08:16:32;;;;;;;12.05;6.47;;;13.20;99.90;;;;;;5052232;28;20102;-47
2022/05/24 08:18:58;;;;;;;17.95;7.05;;;14.40;99.90;;;;;;5052442;28;20040;-47
2022/05/24 08:21:28;;;;;;;13.57;7.18;;;15.10;99.90;;;;;;5056291;28;20040;-47
2022/05/24 08:23:54;;;;;;;13.93;7.55;;;13.10;99.90;;;;;;5054843;28;20047;-50
2022/05/24 08:26:20;;;;;;;18.27;7.53;;;15.20;99.90;;;;;;5053731;28;20517;-47
2022/05/24 08:28:50;;;;;;;13.63;7.63;;;13.80;99.90;;;;;;5056003;28;20272;-49
2022/05/24 08:31:16;;;;;;;15.95;8.73;;;13.30;99.90;;;;;;5055373;28;20033;-51
2022/05/24 08:33:45;;;;;;;13.43;7.55;;;13.30;99.90;;;;;;5055465;28;20029;-50
2022/05/24 08:36:11;;;;;;;13.02;7.97;;;15.30;99.90;;;;;;5056680;28;20048;-51
2022/05/24 08:38:38;;;;;;;12.25;7.50;;;14.80;99.90;;;;;;5056189;28;20106;-51
2022/05/24 08:41:09;;;;;;;15.10;6.60;;;14.60;99.90;;;;;;5055762;28;20098;-48
2022/05/24 08:43:53;;;;;;;14.32;7.07;;;14.30;99.90;;;;;;5056415;28;20119;-45
2022/05/24 08:49:17;;;;;;;25.40;10.07;;;13.60;99.90;;;;;;5056559;28;20434;-48
2022/05/24 08:52:00;;;;;;;18.58;9.15;;;14.40;99.90;;;;;;5053495;28;20044;-47
2022/05/24 08:54:39;;;;;;;15.70;7.72;;;13.20;99.90;;;;;;5054912;28;20044;-46
2022/05/24 08:57:09;;;;;;;9.82;1.95;;;13.00;99.90;;;;;;5053125;28;20068;-49
2022/05/24 08:59:42;;;;;;;6.00;1.40;;;12.80;99.90;;;;;;5054458;28;20033;-50
2022/05/24 09:02:08;;;;;;;7.32;3.35;;;12.70;99.90;;;;;;5055262;28;20118;-52
2022/05/24 09:04:34;;;;;;;13.38;7.85;;;13.20;99.90;;;;;;5054518;28;20505;-50
2022/05/24 09:07:23;;;;;;;12.43;4.70;;;12.90;99.90;;;;;;5055475;28;20102;-49
2022/05/24 09:10:21;;;;;;;11.45;3.75;;;12.50;99.90;;;;;;5052332;28;20057;-50
2022/05/24 09:13:11;;;;;;;10.45;2.70;;;12.40;99.90;;;;;;4993783;28;21639;-51
2022/05/24 09:15:55;;;;;;;13.82;2.65;;;12.50;99.90;;;;;;4998546;28;20051;-47
2022/05/24 09:19:05;;;;;;;8.43;2.90;;;12.40;99.90;;;;;;5001224;28;20285;-48
2022/05/24 09:21:33;;;;;;;8.00;3.00;;;10.70;99.90;;;;;;4914759;29;20044;-50
2022/05/24 09:24:04;;;;;;;8.02;2.83;;;12.80;99.90;;;;;;4915649;29;20052;-48
2022/05/24 09:26:34;;;;;;;8.38;3.10;;;12.90;99.90;;;;;;4917730;29;20070;-44
2022/05/24 09:29:14;;;;;;;7.75;2.78;;;13.90;99.90;;;;;;4915247;29;20228;-50
2022/05/24 09:31:43;;;;;;;9.35;2.60;;;13.50;99.90;;;;;;4914801;29;20062;-46
2022/05/24 09:34:28;;;;;;;5.72;2.70;;;16.00;99.90;;;;;;4914501;29;21684;-51
2022/05/24 09:36:58;;;;;;;5.07;1.85;;;13.80;99.90;;;;;;4916009;29;20091;-51
2022/05/24 09:39:41;;;;;;;6.88;2.53;;;13.80;99.90;;;;;;4914985;29;20043;-46
2022/05/24 09:42:13;;;;;;;7.22;2.10;;;13.70;99.90;;;;;;4914451;29;20122;-46
2022/05/24 09:44:47;;;;;;;;;;;13.60;99.90;;;;;;4918492;28;20052;-48
2022/05/24 09:47:37;;;;;;;6.05;2.05;;;13.70;99.90;;;;;;4922013;29;19926;-45
2022/05/24 09:50:18;;;;;;;4.30;2.08;;;13.80;99.90;;;;;;4952371;28;20050;-44
2022/05/24 09:53:02;;;;;;;6.25;2.28;;;14.20;99.90;;;;;;4955227;28;20090;-46
2022/05/24 09:55:47;;;;;;;7.85;2.40;;;16.80;99.90;;;;;;4972378;28;20038;-45
2022/05/24 09:58:28;;;;;;;19.40;3.15;;;15.20;99.90;;;;;;5046460;28;20417;-46
2022/05/24 10:01:07;;;;;;;16.92;2.90;;;15.40;99.90;;;;;;5054583;28;20111;-48
2022/05/24 10:03:42;;;;;;;10.35;2.38;;;15.40;99.90;;;;;;5051597;28;20044;-46
2022/05/24 10:06:25;;;;;;;5.38;2.00;;;15.40;99.90;;;;;;5050790;28;20443;-45
2022/05/24 10:09:14;;;;;;;6.70;2.40;;;15.40;99.90;;;;;;5053801;28;20309;-45
2022/05/24 10:11:47;;;;;;;6.97;2.40;;;15.00;99.90;;;;;;5051440;28;20055;-45
2022/05/24 10:14:52;;;;;;;7.63;2.20;;;14.80;99.90;;;;;;5053017;28;20497;-45
2022/05/24 10:17:41;;;;;;;6.95;2.35;;;15.20;99.90;;;;;;5050458;28;20051;-45
2022/05/24 10:20:23;;;;;;;7.57;2.60;;;15.00;99.90;;;;;;5049506;28;20429;-46
2022/05/24 10:23:31;;;;;;;8.48;2.85;;;14.80;99.90;;;;;;5050271;28;20601;-47
2022/05/24 10:26:32;;;;;;;8.07;3.05;;;14.70;99.90;;;;;;5049352;28;20048;-46
2022/05/24 10:29:35;;;;;;;5.13;2.97;;;14.20;99.90;;;;;;5046223;28;20136;-51
2022/05/24 10:32:07;;;;;;;7.72;2.28;;;13.90;99.90;;;;;;5009507;28;20079;-47
2022/05/24 10:41:07;;;;;;;4.53;2.03;;;14.10;99.90;;;;;;5010113;28;20049;-50
2022/05/24 10:43:41;;;;;;;5.45;2.10;;;14.70;99.90;;;;;;5009287;28;20534;-48
2022/05/24 10:46:13;;;;;;;5.57;2.40;;;15.10;99.90;;;;;;5010328;28;20049;-48
2022/05/24 10:49:01;;;;;;;6.35;2.25;;;15.80;99.90;;;;;;5011421;28;20060;-46
2022/05/24 10:51:48;;;;;;;5.88;1.88;;;15.80;99.90;;;;;;5010479;28;20045;-49
2022/05/24 10:54:36;;;;;;;7.40;2.35;;;15.90;99.90;;;;;;4995057;28;20069;-44
2022/05/24 10:57:10;;;;;;;6.57;2.22;;;16.20;99.90;;;;;;4989974;28;20583;-44
2022/05/24 10:59:38;;;;;;;5.32;1.95;;;16.60;99.90;;;;;;4990498;28;20045;-45
2022/05/24 11:02:17;;;;;;;5.53;1.80;;;16.30;99.90;;;;;;4989969;28;20046;-50
2022/05/24 11:04:56;;;;;;;6.50;2.20;;;16.30;99.90;;;;;;4990143;28;20042;-44
2022/05/24 11:07:24;;;;;;;6.57;2.50;;;15.80;99.90;;;;;;4972810;28;20880;-46
2022/05/24 11:10:15;;;;;;;4.82;1.67;;;15.40;99.90;;;;;;5053139;28;20036;-47
2022/05/24 11:12:50;;;;;;;7.13;2.13;;;15.20;99.90;;;;;;5052923;28;20075;-51
2022/05/24 11:15:32;;;;;;;5.32;2.20;;;14.90;99.90;;;;;;5053397;28;20708;-49
2022/05/24 11:18:01;;;;;;;7.40;2.83;;;14.10;99.90;;;;;;5052095;28;20071;-48
2022/05/24 11:20:39;;;;;;;6.70;2.00;;;14.00;99.90;;;;;;5052013;28;20032;-49
2022/05/24 11:23:45;;;;;;;13.23;2.58;;;14.60;99.90;;;;;;5053137;28;20045;-46
2022/05/24 11:26:34;;;;;;;5.00;1.70;;;14.30;99.90;;;;;;5048883;28;20619;-46
2022/05/24 11:29:24;;;;;;;5.43;1.92;;;14.60;99.90;;;;;;5048612;28;20089;-48
2022/05/24 11:32:07;;;;;;;11.00;1.70;;;14.90;99.90;;;;;;5048599;28;20056;-48
2022/05/24 11:34:38;;;;;;;4.63;1.65;;;15.40;99.90;;;;;;5047413;28;20612;-49
2022/05/24 11:37:13;;;;;;;3.72;1.42;;;16.00;99.90;;;;;;5048308;28;20053;-47
2022/05/24 11:39:42;;;;;;;4.68;1.45;;;14.70;99.90;;;;;;5046397;28;20504;-47
2022/05/24 11:42:29;;;;;;;3.67;1.20;;;16.40;99.90;;;;;;5047904;28;20047;-47
2022/05/24 11:44:57;;;;;;;3.83;1.10;;;15.60;99.90;;;;;;5049842;28;20051;-51
2022/05/24 11:47:56;;;;;;;3.20;1.25;;;15.40;99.90;;;;;;5048939;28;20835;-47
2022/05/24 11:50:31;;;;;;;3.50;1.20;;;15.50;99.90;;;;;;4968423;28;20061;-51
2022/05/24 11:53:11;;;;;;;13.02;2.03;;;16.10;99.90;;;;;;4971117;28;20061;-47
2022/05/24 11:55:57;;;;;;;9.82;1.50;;;15.20;99.90;;;;;;4973455;28;20054;-47
2022/05/24 11:58:42;;;;;;;6.40;1.20;;;15.00;99.90;;;;;;4975725;28;20042;-45
2022/05/24 12:01:15;;;;;;;16.35;3.00;;;15.00;99.90;;;;;;4974122;28;20050;-43
2022/05/24 12:09:54;;;;;;;;;;;14.90;99.90;;;;;;4991276;28;20763;-46
2022/05/24 12:12:28;;;;;;;9.50;1.73;;;15.30;99.90;;;;;;4990674;28;19929;-45
2022/05/24 12:15:20;;;;;;;9.10;1.40;;;15.50;99.90;;;;;;4991938;28;20205;-48
2022/05/24 12:18:00;;;;;;;10.15;1.45;;;15.60;99.90;;;;;;4975519;28;20054;-47
2022/05/24 12:20:34;;;;;;;10.45;2.22;;;15.70;99.90;;;;;;4975833;28;20050;-47
2022/05/24 12:23:19;;;;;;;6.13;1.35;;;15.70;99.90;;;;;;4973907;28;20105;-44
2022/05/24 12:26:06;;;;;;;14.82;2.17;;;15.30;99.90;;;;;;4973969;28;20471;-45
2022/05/24 12:28:37;;;;;;;7.85;1.52;;;15.20;99.90;;;;;;5009541;28;20147;-46
2022/05/24 12:31:28;;;;;;;4.32;1.30;;;17.40;99.90;;;;;;5009981;28;20115;-44
2022/05/24 12:33:58;;;;;;;9.70;1.63;;;15.40;99.90;;;;;;5007222;28;20088;-44
2022/05/24 12:36:26;;;;;;;8.50;1.17;;;16.10;99.90;;;;;;5005917;28;20053;-49
2022/05/24 12:39:11;;;;;;;20.85;2.47;;;16.30;99.90;;;;;;5009570;28;20337;-46
2022/05/24 12:41:46;;;;;;;12.32;2.20;;;16.40;99.90;;;;;;5006894;28;20054;-44
2022/05/24 12:44:14;;;;;;;7.38;1.30;;;16.70;99.90;;;;;;5010080;28;20073;-49
2022/05/24 12:46:42;;;;;;;6.65;1.20;;;16.70;99.90;;;;;;5006978;28;20034;-47
2022/05/24 12:49:17;;;;;;;6.57;1.58;;;16.90;99.90;;;;;;5009220;28;20038;-47
2022/05/24 12:51:43;;;;;;;2.78;0.80;;;17.10;99.90;;;;;;5009821;28;20090;-46
2022/05/24 12:54:32;;;;;;;4.72;1.23;;;19.00;99.90;;;;;;5022772;28;20059;-49
2022/05/24 12:57:06;;;;;;;6.55;0.90;;;17.30;99.90;;;;;;5053249;28;20889;-45
2022/05/24 12:59:37;;;;;;;5.85;0.90;;;16.50;99.90;;;;;;5054976;28;20044;-48
2022/05/24 13:02:37;;;;;;;10.73;1.38;;;17.80;99.90;;;;;;5054078;28;20037;-44
2022/05/24 13:05:11;;;;;;;12.25;1.30;;;16.10;99.90;;;;;;5053337;28;20067;-49
2022/05/24 13:07:45;;;;;;;7.55;1.27;;;16.20;99.90;;;;;;5053621;28;20064;-50
2022/05/24 13:10:26;;;;;;;6.22;1.52;;;16.50;99.90;;;;;;5054909;28;20045;-47
2022/05/24 13:12:55;;;;;;;4.50;1.10;;;16.40;99.90;;;;;;5053699;28;20131;-47
2022/05/24 13:15:25;;;;;;;4.30;0.95;;;17.10;99.90;;;;;;5054557;28;20497;-49
2022/05/24 13:17:58;;;;;;;3.90;1.08;;;16.80;99.90;;;;;;5055607;28;20036;-48
2022/05/24 13:20:29;;;;;;;7.78;1.48;;;16.10;99.90;;;;;;5055384;28;20632;-47
2022/05/24 13:23:05;;;;;;;7.55;1.40;;;15.80;99.90;;;;;;5053689;28;20040;-45
2022/05/24 13:25:50;;;;;;;9.98;1.55;;;15.70;99.90;;;;;;5054150;28;20055;-49
2022/05/24 13:28:35;;;;;;;7.95;1.80;;;15.60;99.90;;;;;;5053705;28;20875;-46
2022/05/24 13:34:23;;;;;;;13.95;2.10;;;16.20;99.90;;;;;;5055354;28;20063;-48
2022/05/24 13:37:08;;;;;;;7.28;1.88;;;15.30;99.90;;;;;;5054045;28;20040;-44
2022/05/24 13:39:39;;;;;;;8.75;1.95;;;17.50;99.90;;;;;;5052873;28;20029;-49
2022/05/24 13:42:21;;;;;;;5.50;1.45;;;15.50;99.90;;;;;;5052577;28;20064;-47
2022/05/24 13:45:11;;;;;;;6.68;1.45;;;15.80;99.90;;;;;;5053463;28;20619;-47
2022/05/24 13:47:39;;;;;;;9.48;1.88;;;16.10;99.90;;;;;;5053627;28;20103;-49
2022/05/24 13:50:23;;;;;;;6.55;2.10;;;16.50;99.90;;;;;;5054177;28;20125;-45
2022/05/24 13:53:01;;;;;;;7.50;1.77;;;16.40;99.90;;;;;;5053152;28;20131;-46